Time;durP1;ratioP1;P1;durP2;ratioP2;P2;SDS_P1;SDS_P2;PMS_P1;PMS_P2;Temp;Humidity;BMP_temperature;BMP_pressure;BME280_temperature;BME280_humidity;BME280_pressure;Samples;Min_cycle;Max_cycle;Signal;HPM_P1;HPM_P2
2021/07/25 00:00:42;;;;;;;14.18;11.52;;;19.80;83.90;;;;;;2084916;28;20025;-92
2021/07/25 00:01:43;;;;;;;14.02;11.73;;;19.80;83.90;;;;;;2084835;28;20049;-89
2021/07/25 00:02:43;;;;;;;14.68;12.35;;;19.80;83.90;;;;;;2076006;28;20049;-94
2021/07/25 00:03:44;;;;;;;13.60;11.02;;;19.80;83.90;;;;;;2090057;28;20040;-94
2021/07/25 00:04:44;;;;;;;15.75;12.40;;;19.80;83.90;;;;;;2082404;28;20277;-94
2021/07/25 00:05:45;;;;;;;14.23;11.68;;;19.80;83.90;;;;;;2082090;28;20519;-94
2021/07/25 00:06:46;;;;;;;14.35;11.82;;;19.80;83.90;;;;;;2082615;28;20037;-94
2021/07/25 00:07:46;;;;;;;14.38;12.18;;;19.80;84.00;;;;;;2074667;28;20030;-94
2021/07/25 00:08:47;;;;;;;15.05;11.90;;;19.80;84.00;;;;;;2082615;28;20036;-94
2021/07/25 00:09:48;;;;;;;14.27;10.93;;;19.80;84.00;;;;;;2065931;28;20069;-94
2021/07/25 00:10:49;;;;;;;15.75;12.20;;;19.80;84.00;;;;;;2074297;28;20033;-94
2021/07/25 00:11:49;;;;;;;15.07;12.25;;;19.80;84.00;;;;;;2074434;28;20026;-94
2021/07/25 00:12:50;;;;;;;14.35;11.98;;;19.80;84.00;;;;;;2058249;28;20046;-93
2021/07/25 00:13:52;;;;;;;14.15;11.80;;;19.80;84.00;;;;;;2073299;28;20058;-94
2021/07/25 00:14:53;;;;;;;16.27;13.18;;;19.80;84.10;;;;;;2066475;28;20065;-95
2021/07/25 00:15:54;;;;;;;13.60;11.57;;;19.80;84.10;;;;;;2081772;28;20495;-94
2021/07/25 00:16:54;;;;;;;14.63;11.57;;;19.80;84.10;;;;;;2082534;28;20120;-94
2021/07/25 00:17:55;;;;;;;15.05;11.90;;;19.80;84.20;;;;;;2066142;28;20050;-94
2021/07/25 00:18:56;;;;;;;15.35;12.60;;;19.80;84.30;;;;;;2074232;28;20022;-94
2021/07/25 00:19:56;;;;;;;15.30;11.77;;;19.80;84.30;;;;;;2073111;28;20041;-95
2021/07/25 00:20:57;;;;;;;14.10;11.88;;;19.70;84.30;;;;;;2066284;28;20035;-93
2021/07/25 00:21:58;;;;;;;14.52;11.55;;;19.80;84.40;;;;;;2082243;28;20034;-94
2021/07/25 00:22:59;;;;;;;15.20;12.05;;;19.70;84.40;;;;;;2078967;28;20038;-93
2021/07/25 00:24:01;;;;;;;14.50;11.68;;;19.70;84.40;;;;;;2074367;28;20037;-94
2021/07/25 00:25:09;;;;;;;14.70;11.88;;;19.70;84.50;;;;;;2082195;28;20082;-93
2021/07/25 00:26:13;;;;;;;15.98;12.38;;;19.70;84.50;;;;;;2076226;28;20033;-93
2021/07/25 00:27:13;;;;;;;14.23;11.85;;;19.70;84.50;;;;;;2083460;28;20021;-94
2021/07/25 00:28:17;;;;;;;14.07;11.80;;;19.70;84.50;;;;;;2082359;28;20474;-94
2021/07/25 00:29:18;;;;;;;14.85;11.68;;;19.70;84.50;;;;;;2083135;28;20053;-94
2021/07/25 00:30:20;;;;;;;13.95;11.65;;;19.80;84.60;;;;;;2089842;28;20549;-95
2021/07/25 00:31:22;;;;;;;15.13;11.82;;;19.70;84.50;;;;;;2077673;28;20029;-93
2021/07/25 00:32:22;;;;;;;16.00;12.52;;;19.70;84.50;;;;;;2074382;28;20026;-94
2021/07/25 00:33:23;;;;;;;14.50;11.98;;;19.70;84.50;;;;;;2065866;28;20097;-94
2021/07/25 00:34:24;;;;;;;14.05;11.85;;;19.70;84.50;;;;;;2057681;28;20117;-94
2021/07/25 00:35:25;;;;;;;15.65;12.48;;;19.70;84.50;;;;;;2065921;28;20039;-94
2021/07/25 00:36:26;;;;;;;13.70;11.68;;;19.70;84.50;;;;;;2057762;28;20030;-93
2021/07/25 00:37:26;;;;;;;14.63;12.52;;;19.70;84.50;;;;;;2057983;28;20030;-94
2021/07/25 00:38:28;;;;;;;14.73;12.50;;;19.70;84.60;;;;;;2081923;28;20486;-94
2021/07/25 00:39:29;;;;;;;15.90;12.18;;;19.70;84.60;;;;;;2082226;28;20030;-93
2021/07/25 00:40:36;;;;;;;13.88;11.93;;;19.70;84.60;;;;;;2078591;28;20022;-93
2021/07/25 00:41:37;;;;;;;15.27;12.27;;;19.70;84.60;;;;;;2083817;28;20492;-93
2021/07/25 00:42:39;;;;;;;15.00;12.50;;;19.70;84.60;;;;;;2081555;28;20029;-94
2021/07/25 00:43:40;;;;;;;15.52;12.43;;;19.70;84.70;;;;;;2073953;28;20034;-93
2021/07/25 00:44:41;;;;;;;15.55;12.45;;;19.70;84.70;;;;;;2081923;28;20033;-94
2021/07/25 00:45:41;;;;;;;16.15;12.40;;;19.70;84.70;;;;;;2082357;28;20598;-94
2021/07/25 00:46:51;;;;;;;15.65;12.57;;;19.70;84.80;;;;;;2069048;28;20073;-94
2021/07/25 00:47:51;;;;;;;15.35;11.98;;;19.70;84.80;;;;;;2068448;28;20053;-93
2021/07/25 00:48:55;;;;;;;15.57;12.63;;;19.70;84.80;;;;;;2065985;28;20031;-94
2021/07/25 00:49:56;;;;;;;15.48;12.45;;;19.70;84.80;;;;;;2059141;28;20031;-94
2021/07/25 00:51:00;;;;;;;15.55;12.60;;;19.60;84.70;;;;;;2074132;28;20033;-93
2021/07/25 00:52:00;;;;;;;15.57;13.05;;;19.60;84.70;;;;;;2083283;28;20377;-94
2021/07/25 00:53:02;;;;;;;15.43;11.93;;;19.60;84.70;;;;;;2071363;28;20036;-94
2021/07/25 00:54:03;;;;;;;14.77;12.40;;;19.60;84.80;;;;;;2067189;28;20026;-93
2021/07/25 00:55:04;;;;;;;15.93;12.77;;;19.60;84.80;;;;;;2081138;28;20037;-94
2021/07/25 00:56:09;;;;;;;14.95;12.82;;;19.70;84.90;;;;;;2073370;28;20044;-93
2021/07/25 00:57:10;;;;;;;14.68;12.55;;;19.70;84.90;;;;;;2082646;28;20033;-94
2021/07/25 00:58:11;;;;;;;16.25;13.05;;;19.60;84.80;;;;;;2082103;28;20038;-93
2021/07/25 00:59:12;;;;;;;16.52;12.80;;;19.60;84.80;;;;;;2089181;28;20025;-95
2021/07/25 01:00:13;;;;;;;16.27;12.77;;;19.60;84.90;;;;;;2090659;28;20091;-94
2021/07/25 01:01:14;;;;;;;15.23;12.73;;;19.60;84.90;;;;;;2082096;28;20053;-94
2021/07/25 01:02:15;;;;;;;15.73;12.68;;;19.60;84.90;;;;;;2073585;28;20029;-93
2021/07/25 01:03:36;;;;;;;16.35;13.02;;;19.60;84.90;;;;;;2073975;28;20492;-93
2021/07/25 01:04:39;;;;;;;14.63;12.15;;;19.60;84.90;;;;;;2084896;28;20072;-93
2021/07/25 01:05:47;;;;;;;14.85;12.13;;;19.60;84.90;;;;;;2082114;28;20048;-94
2021/07/25 01:07:02;;;;;;;14.43;12.20;;;19.60;84.90;;;;;;2083214;28;20028;-94
2021/07/25 01:08:23;;;;;;;15.50;12.57;;;19.60;84.90;;;;;;2092125;28;20044;-92
2021/07/25 01:09:26;;;;;;;;;;;19.60;84.90;;;;;;2088168;28;20092;-94
2021/07/25 01:10:30;;;;;;;13.65;10.85;;;19.60;84.90;;;;;;2090938;28;19916;-93
2021/07/25 01:12:03;;;;;;;14.32;12.15;;;19.50;84.90;;;;;;2090358;28;20483;-94
2021/07/25 01:13:08;;;;;;;13.48;11.40;;;19.50;84.80;;;;;;2069280;28;20033;-94
2021/07/25 01:14:11;;;;;;;14.88;12.10;;;19.50;84.90;;;;;;2089252;28;20047;-94
2021/07/25 01:15:19;;;;;;;13.95;12.27;;;19.50;85.00;;;;;;2066109;28;20041;-94
2021/07/25 01:16:20;;;;;;;13.90;11.77;;;19.50;85.70;;;;;;2075153;28;20026;-94
2021/07/25 01:17:35;;;;;;;13.75;11.40;;;19.50;85.20;;;;;;2082222;28;20034;-94
2021/07/25 01:18:46;;;;;;;14.43;12.07;;;19.40;85.20;;;;;;2085904;28;20115;-94
2021/07/25 01:19:49;;;;;;;14.82;12.25;;;19.40;85.20;;;;;;2090476;28;20028;-93
2021/07/25 01:20:49;;;;;;;14.50;12.38;;;19.50;85.30;;;;;;2089994;28;20083;-93
2021/07/25 01:21:50;;;;;;;15.68;12.27;;;19.40;85.30;;;;;;2083737;28;20083;-94
2021/07/25 01:22:53;;;;;;;15.88;12.98;;;19.40;85.40;;;;;;2076341;28;20093;-94
2021/07/25 01:23:54;;;;;;;16.80;12.60;;;19.40;85.40;;;;;;2085189;28;20026;-94
2021/07/25 01:24:55;;;;;;;16.48;13.57;;;19.40;85.50;;;;;;2076371;28;20117;-95
2021/07/25 01:25:58;;;;;;;14.65;11.82;;;19.40;85.50;;;;;;2077022;28;20037;-94
2021/07/25 01:26:59;;;;;;;15.32;12.57;;;19.40;85.60;;;;;;2082180;28;20091;-94
2021/07/25 01:28:03;;;;;;;16.88;12.48;;;19.40;85.50;;;;;;2081875;28;20500;-93
2021/07/25 01:29:05;;;;;;;15.15;13.05;;;19.40;85.50;;;;;;2089736;28;20093;-93
2021/07/25 01:30:10;;;;;;;14.30;12.57;;;19.40;85.60;;;;;;2090447;28;20033;-94
2021/07/25 01:31:16;;;;;;;14.70;13.00;;;19.40;85.60;;;;;;2090050;28;20519;-93
2021/07/25 01:32:17;;;;;;;14.15;12.52;;;19.40;85.60;;;;;;2089464;28;20040;-93
2021/07/25 01:33:20;;;;;;;16.05;13.23;;;19.40;85.60;;;;;;2090003;28;20021;-93
2021/07/25 01:34:21;;;;;;;15.18;12.93;;;19.40;85.60;;;;;;2082121;28;20140;-94
2021/07/25 01:35:24;;;;;;;14.85;13.20;;;19.40;85.70;;;;;;2082006;28;20025;-93
2021/07/25 01:36:25;;;;;;;14.57;12.50;;;19.30;85.70;;;;;;2074180;28;20061;-93
2021/07/25 01:37:30;;;;;;;14.98;13.10;;;19.30;85.80;;;;;;2065197;28;20539;-94
2021/07/25 01:38:31;;;;;;;14.02;12.32;;;19.40;85.90;;;;;;2065931;28;20058;-94
2021/07/25 01:39:32;;;;;;;16.13;12.95;;;19.30;85.80;;;;;;2072678;28;20092;-94
2021/07/25 01:40:33;;;;;;;13.82;11.82;;;19.30;85.80;;;;;;2076677;28;20404;-93
2021/07/25 01:41:42;;;;;;;14.82;12.52;;;19.30;85.80;;;;;;2076626;28;20021;-93
2021/07/25 01:42:44;;;;;;;15.23;12.27;;;19.40;85.90;;;;;;2074918;28;20117;-92
2021/07/25 01:43:48;;;;;;;14.98;12.05;;;19.40;86.00;;;;;;2073377;28;20034;-94
2021/07/25 01:44:48;;;;;;;15.65;12.75;;;19.30;85.90;;;;;;2081464;28;20036;-93
2021/07/25 01:45:49;;;;;;;15.10;12.43;;;19.40;86.00;;;;;;2057420;28;20035;-94
2021/07/25 01:46:50;;;;;;;16.50;12.95;;;19.40;86.00;;;;;;2043235;29;20031;-94
2021/07/25 01:47:50;;;;;;;15.85;12.93;;;19.30;85.90;;;;;;2049688;28;20082;-93
2021/07/25 01:48:51;;;;;;;15.50;12.90;;;19.40;86.00;;;;;;2064836;28;20182;-94
2021/07/25 01:49:51;;;;;;;16.95;12.80;;;19.40;86.00;;;;;;2056656;28;20037;-93
2021/07/25 01:50:52;;;;;;;14.98;12.60;;;19.30;86.00;;;;;;2049841;28;20035;-94
2021/07/25 01:51:53;;;;;;;16.75;12.57;;;19.30;86.00;;;;;;2063618;28;20026;-93
2021/07/25 01:52:53;;;;;;;14.55;12.35;;;19.30;86.00;;;;;;2065287;28;20014;-93
2021/07/25 01:53:54;;;;;;;16.23;13.15;;;19.40;86.10;;;;;;2056662;28;20368;-93
2021/07/25 01:54:56;;;;;;;14.98;12.40;;;19.40;86.10;;;;;;2061842;28;20089;-94
2021/07/25 01:55:57;;;;;;;16.40;13.25;;;19.30;86.10;;;;;;2057878;28;20023;-94
2021/07/25 01:56:57;;;;;;;16.67;12.95;;;19.30;86.70;;;;;;2070047;28;20093;-94
2021/07/25 01:57:58;;;;;;;16.17;13.27;;;19.40;86.10;;;;;;2065495;28;20065;-94
2021/07/25 01:58:59;;;;;;;15.95;12.60;;;19.30;86.10;;;;;;2064966;28;20121;-93
2021/07/25 01:59:59;;;;;;;15.57;13.40;;;19.30;86.20;;;;;;2065622;28;20101;-93
2021/07/25 02:01:00;;;;;;;16.60;13.88;;;19.30;86.20;;;;;;2073376;28;20111;-94
2021/07/25 02:02:00;;;;;;;16.80;13.75;;;19.30;86.20;;;;;;2095917;28;20033;-94
2021/07/25 02:03:01;;;;;;;15.00;13.18;;;19.30;86.30;;;;;;2080070;28;20033;-95
2021/07/25 02:04:03;;;;;;;16.27;13.68;;;19.30;86.40;;;;;;2064601;28;20497;-94
2021/07/25 02:05:05;;;;;;;15.20;12.98;;;19.30;86.40;;;;;;2072585;28;20044;-94
2021/07/25 02:06:06;;;;;;;16.45;13.32;;;19.30;86.50;;;;;;2081364;28;20037;-93
2021/07/25 02:07:07;;;;;;;15.63;12.88;;;19.30;86.50;;;;;;2073545;28;20026;-94
2021/07/25 02:08:07;;;;;;;16.23;13.30;;;19.30;86.50;;;;;;2065625;28;20031;-94
2021/07/25 02:09:12;;;;;;;16.08;13.23;;;19.30;86.50;;;;;;2059301;28;20081;-93
2021/07/25 02:10:13;;;;;;;16.20;13.05;;;19.30;86.50;;;;;;2056622;28;20114;-93
2021/07/25 02:11:14;;;;;;;15.05;12.75;;;19.30;86.50;;;;;;2077443;28;20040;-93
2021/07/25 02:12:14;;;;;;;15.32;12.68;;;19.30;86.50;;;;;;2084716;28;20022;-93
2021/07/25 02:13:17;;;;;;;16.70;13.23;;;19.30;86.50;;;;;;2068021;28;20037;-93
2021/07/25 02:14:17;;;;;;;16.45;13.82;;;19.30;86.50;;;;;;2073890;28;20026;-94
2021/07/25 02:15:18;;;;;;;16.63;13.35;;;19.30;86.60;;;;;;2081519;28;20049;-93
2021/07/25 02:16:18;;;;;;;17.13;13.82;;;19.30;87.20;;;;;;2081560;28;20067;-93
2021/07/25 02:17:19;;;;;;;16.38;13.50;;;19.30;86.60;;;;;;2073312;28;20514;-95
2021/07/25 02:18:20;;;;;;;17.02;13.02;;;19.20;86.60;;;;;;2073853;28;20022;-94
2021/07/25 02:19:21;;;;;;;16.08;13.38;;;19.20;86.60;;;;;;2081681;28;20041;-94
2021/07/25 02:20:21;;;;;;;15.88;13.25;;;19.20;86.60;;;;;;2087829;28;20033;-93
2021/07/25 02:21:22;;;;;;;14.98;13.27;;;19.20;86.60;;;;;;2089863;28;20056;-94
2021/07/25 02:22:23;;;;;;;16.20;13.48;;;19.20;86.60;;;;;;2081154;28;20017;-94
2021/07/25 02:23:23;;;;;;;15.45;12.98;;;19.20;86.60;;;;;;2081376;28;20069;-94
2021/07/25 02:24:24;;;;;;;14.73;12.77;;;19.20;86.60;;;;;;2057152;28;20027;-94
2021/07/25 02:25:25;;;;;;;16.33;14.10;;;19.20;86.60;;;;;;2057516;28;20035;-93
2021/07/25 02:26:26;;;;;;;17.02;13.40;;;19.20;86.60;;;;;;2060899;28;20027;-94
2021/07/25 02:27:26;;;;;;;15.77;13.32;;;19.20;86.70;;;;;;2071786;28;20113;-94
2021/07/25 02:28:27;;;;;;;15.18;13.00;;;19.20;86.70;;;;;;2081653;28;20036;-93
2021/07/25 02:29:28;;;;;;;16.15;13.48;;;19.20;86.70;;;;;;2089755;28;20033;-94
2021/07/25 02:30:28;;;;;;;16.58;13.30;;;19.20;86.80;;;;;;2081488;28;20103;-94
2021/07/25 02:31:29;;;;;;;15.10;13.00;;;19.20;86.80;;;;;;2065220;28;20117;-94
2021/07/25 02:32:30;;;;;;;14.50;12.45;;;19.20;86.80;;;;;;2057081;28;20027;-94
2021/07/25 02:33:30;;;;;;;16.92;13.18;;;19.10;86.80;;;;;;2065492;28;20031;-93
2021/07/25 02:34:31;;;;;;;15.77;12.88;;;19.10;86.90;;;;;;2065145;28;20031;-95
2021/07/25 02:35:32;;;;;;;14.85;12.90;;;19.10;87.50;;;;;;2075834;28;20026;-94
2021/07/25 02:36:33;;;;;;;16.23;13.43;;;19.10;86.90;;;;;;2073953;28;20093;-94
2021/07/25 02:37:34;;;;;;;16.27;13.45;;;19.10;87.00;;;;;;2080823;28;20098;-94
2021/07/25 02:38:34;;;;;;;15.50;13.07;;;19.10;87.00;;;;;;2073375;28;20026;-94
2021/07/25 02:39:35;;;;;;;18.45;13.88;;;19.10;87.10;;;;;;2057656;28;20090;-94
2021/07/25 02:40:36;;;;;;;16.88;14.05;;;19.10;87.10;;;;;;2057483;28;20117;-93
2021/07/25 02:41:38;;;;;;;16.48;13.60;;;19.10;87.10;;;;;;2059698;28;20045;-93
2021/07/25 02:42:38;;;;;;;15.65;13.45;;;19.00;87.00;;;;;;2050608;28;20178;-93
2021/07/25 02:43:39;;;;;;;16.05;13.30;;;19.00;87.10;;;;;;2059936;28;20408;-94
2021/07/25 02:44:39;;;;;;;15.13;13.52;;;19.00;87.70;;;;;;2065349;28;20069;-93
2021/07/25 02:45:40;;;;;;;16.80;13.40;;;19.00;87.10;;;;;;2065003;28;20073;-94
2021/07/25 02:46:41;;;;;;;15.52;13.13;;;19.00;87.20;;;;;;2062393;28;20590;-94
2021/07/25 02:47:41;;;;;;;15.52;13.38;;;18.90;87.20;;;;;;2081833;28;20034;-93
2021/07/25 02:48:42;;;;;;;15.90;13.30;;;18.90;87.20;;;;;;2075343;28;20022;-88
2021/07/25 02:49:43;;;;;;;14.52;12.73;;;18.90;87.20;;;;;;2084141;28;20085;-91
2021/07/25 02:50:43;;;;;;;16.88;13.48;;;19.00;87.30;;;;;;2083908;28;20010;-89
2021/07/25 02:51:44;;;;;;;15.27;13.38;;;18.90;87.30;;;;;;2086000;28;20014;-89
2021/07/25 02:52:45;;;;;;;15.45;12.85;;;18.90;87.30;;;;;;2100237;28;20088;-85
2021/07/25 02:53:45;;;;;;;16.48;13.63;;;18.90;87.40;;;;;;2081095;28;20026;-94
2021/07/25 02:54:46;;;;;;;16.20;13.50;;;18.90;87.40;;;;;;2080705;28;20038;-96
2021/07/25 02:55:47;;;;;;;16.67;13.18;;;18.90;87.50;;;;;;2087890;28;20026;-94
2021/07/25 02:56:47;;;;;;;16.73;13.60;;;18.90;87.50;;;;;;2095388;28;20068;-94
2021/07/25 02:57:48;;;;;;;15.60;13.65;;;18.90;87.60;;;;;;2092553;28;20049;-94
2021/07/25 02:58:48;;;;;;;16.35;13.48;;;18.90;87.60;;;;;;2090101;28;20033;-94
2021/07/25 02:59:50;;;;;;;15.40;13.10;;;18.90;87.60;;;;;;2073583;28;20034;-94
2021/07/25 03:00:51;;;;;;;16.13;13.35;;;18.90;87.60;;;;;;2081763;28;20095;-94
2021/07/25 03:01:52;;;;;;;15.15;13.13;;;18.80;87.60;;;;;;2078404;28;20535;-94
2021/07/25 03:02:56;;;;;;;16.02;13.60;;;18.90;87.70;;;;;;2065433;28;20034;-94
2021/07/25 03:03:56;;;;;;;15.88;13.77;;;18.80;87.60;;;;;;2074702;28;20080;-94
2021/07/25 03:04:57;;;;;;;16.02;13.65;;;18.90;87.70;;;;;;2070924;28;20018;-94
2021/07/25 03:05:57;;;;;;;15.68;13.20;;;18.80;87.70;;;;;;2057086;28;20076;-94
2021/07/25 03:06:58;;;;;;;17.38;14.20;;;18.80;87.70;;;;;;2061104;28;20031;-94
2021/07/25 03:07:59;;;;;;;15.93;13.52;;;18.80;87.70;;;;;;2058583;28;20059;-94
2021/07/25 03:08:59;;;;;;;18.05;14.18;;;18.80;87.70;;;;;;2062909;28;20027;-93
2021/07/25 03:10:00;;;;;;;15.90;13.55;;;18.80;87.80;;;;;;2082862;28;20086;-94
2021/07/25 03:11:05;;;;;;;16.77;13.93;;;18.80;87.80;;;;;;2083051;28;20069;-94
2021/07/25 03:12:06;;;;;;;15.13;12.70;;;18.80;87.80;;;;;;2082935;28;20057;-93
2021/07/25 03:13:06;;;;;;;15.65;13.07;;;18.80;87.90;;;;;;2087660;28;20113;-94
2021/07/25 03:14:07;;;;;;;16.10;13.15;;;18.80;87.90;;;;;;2091120;28;20071;-94
2021/07/25 03:15:09;;;;;;;15.43;13.13;;;18.80;87.90;;;;;;2082149;28;20513;-94
2021/07/25 03:16:09;;;;;;;15.38;13.35;;;18.80;88.00;;;;;;2074543;28;20042;-93
2021/07/25 03:17:10;;;;;;;15.13;13.13;;;18.70;88.00;;;;;;2074648;28;20065;-94
2021/07/25 03:18:11;;;;;;;14.93;12.80;;;18.80;88.00;;;;;;2066854;28;20042;-94
2021/07/25 03:19:11;;;;;;;17.27;13.48;;;18.80;88.10;;;;;;2058157;28;20393;-94
2021/07/25 03:20:13;;;;;;;16.27;12.88;;;18.70;88.00;;;;;;2066427;28;20030;-94
2021/07/25 03:21:13;;;;;;;15.68;13.20;;;18.70;88.10;;;;;;2058662;28;20038;-94
2021/07/25 03:22:14;;;;;;;15.10;12.70;;;18.70;88.10;;;;;;2066824;28;20054;-94
2021/07/25 03:23:15;;;;;;;16.20;13.70;;;18.70;88.10;;;;;;2066514;28;20034;-94
2021/07/25 03:24:15;;;;;;;15.77;12.82;;;18.70;88.10;;;;;;2066449;28;20591;-93
2021/07/25 03:25:16;;;;;;;17.17;13.18;;;18.70;88.10;;;;;;2058588;28;20054;-95
2021/07/25 03:26:17;;;;;;;16.63;12.80;;;18.70;88.20;;;;;;2074258;28;20034;-94
2021/07/25 03:27:18;;;;;;;15.75;13.18;;;18.70;88.20;;;;;;2081550;28;20539;-94
2021/07/25 03:28:19;;;;;;;16.95;12.77;;;18.70;88.20;;;;;;2066491;28;20034;-94
2021/07/25 03:29:19;;;;;;;16.65;13.55;;;18.70;88.20;;;;;;2066528;28;20031;-93
2021/07/25 03:30:20;;;;;;;15.02;12.98;;;18.60;88.20;;;;;;2066817;28;20030;-94
2021/07/25 03:31:21;;;;;;;16.17;13.55;;;18.60;88.20;;;;;;2050279;28;20042;-94
2021/07/25 03:32:21;;;;;;;16.98;13.27;;;18.60;88.20;;;;;;2066565;28;20030;-94
2021/07/25 03:33:22;;;;;;;15.65;13.13;;;18.60;88.20;;;;;;2074398;28;20038;-94
2021/07/25 03:34:23;;;;;;;17.92;14.18;;;18.70;88.30;;;;;;2067656;28;20126;-93
2021/07/25 03:35:24;;;;;;;15.50;12.90;;;18.60;88.30;;;;;;2074313;28;20120;-93
2021/07/25 03:36:26;;;;;;;15.85;13.30;;;18.60;88.30;;;;;;2074640;28;20030;-93
2021/07/25 03:37:27;;;;;;;15.35;12.60;;;18.60;88.30;;;;;;2082824;28;20447;-94
2021/07/25 03:38:27;;;;;;;15.38;13.05;;;18.60;88.30;;;;;;2082537;28;20037;-94
2021/07/25 03:39:29;;;;;;;15.35;12.82;;;18.60;88.40;;;;;;2082584;28;20392;-93
2021/07/25 03:40:31;;;;;;;16.85;13.80;;;18.60;88.50;;;;;;2082619;28;20587;-94
2021/07/25 03:41:31;;;;;;;18.27;13.65;;;18.50;88.50;;;;;;2074346;28;20033;-93
2021/07/25 03:42:32;;;;;;;15.70;13.10;;;18.60;88.60;;;;;;2074374;28;20030;-94
2021/07/25 03:43:33;;;;;;;15.40;13.07;;;18.50;88.60;;;;;;2074379;28;20037;-94
2021/07/25 03:44:33;;;;;;;16.08;13.35;;;18.50;88.60;;;;;;2058313;28;20027;-94
2021/07/25 03:45:35;;;;;;;15.20;12.82;;;18.50;88.60;;;;;;2066553;28;20066;-94
2021/07/25 03:46:36;;;;;;;15.18;12.48;;;18.50;88.60;;;;;;2074498;28;20054;-93
2021/07/25 03:47:39;;;;;;;14.82;13.23;;;18.50;88.70;;;;;;2066357;28;20027;-94
2021/07/25 03:48:40;;;;;;;14.43;12.75;;;18.50;88.70;;;;;;2071471;28;20048;-92
2021/07/25 03:49:42;;;;;;;14.50;12.60;;;18.50;89.30;;;;;;2052467;28;20095;-94
2021/07/25 03:50:43;;;;;;;15.02;12.80;;;18.50;88.70;;;;;;2074688;28;20026;-93
2021/07/25 03:51:44;;;;;;;15.18;12.52;;;18.50;88.70;;;;;;2082674;28;20056;-94
2021/07/25 03:52:44;;;;;;;15.57;12.85;;;18.50;88.60;;;;;;2066534;28;20026;-94
2021/07/25 03:53:45;;;;;;;15.70;13.35;;;18.50;88.60;;;;;;2073954;28;20140;-93
2021/07/25 03:54:46;;;;;;;15.77;12.90;;;18.60;88.60;;;;;;2082833;28;20029;-94
2021/07/25 03:55:47;;;;;;;15.55;13.00;;;18.50;88.60;;;;;;2091054;28;20029;-93
2021/07/25 03:56:48;;;;;;;15.20;12.70;;;18.50;88.60;;;;;;2073962;28;20096;-94
2021/07/25 03:57:48;;;;;;;16.58;13.20;;;18.50;88.50;;;;;;2074512;28;20030;-93
2021/07/25 03:58:49;;;;;;;14.48;12.65;;;18.60;88.60;;;;;;2075967;28;20045;-93
2021/07/25 03:59:50;;;;;;;15.88;12.95;;;18.50;88.50;;;;;;2069439;28;20034;-95
2021/07/25 04:00:51;;;;;;;16.30;13.75;;;18.60;89.10;;;;;;2069253;28;20057;-94
2021/07/25 04:01:51;;;;;;;14.88;13.02;;;18.50;88.50;;;;;;2061641;28;20026;-93
2021/07/25 04:02:52;;;;;;;16.48;13.50;;;18.60;88.50;;;;;;2076319;28;20022;-94
2021/07/25 04:03:52;;;;;;;16.85;13.50;;;18.60;88.50;;;;;;2076892;28;20558;-94
2021/07/25 04:04:53;;;;;;;15.25;13.40;;;18.50;88.50;;;;;;2082678;28;20021;-93
2021/07/25 04:05:54;;;;;;;17.25;13.48;;;18.50;88.50;;;;;;2090996;28;20541;-94
2021/07/25 04:06:54;;;;;;;15.68;13.35;;;18.50;88.50;;;;;;2077150;28;20018;-92
2021/07/25 04:07:55;;;;;;;17.25;13.23;;;18.50;88.50;;;;;;2073238;28;20476;-93
2021/07/25 04:08:56;;;;;;;15.15;13.18;;;18.50;88.60;;;;;;2074048;28;20034;-93
2021/07/25 04:09:57;;;;;;;16.25;12.93;;;18.50;88.70;;;;;;2063427;28;20022;-93
2021/07/25 04:10:59;;;;;;;15.18;12.63;;;18.50;88.70;;;;;;2065602;28;20034;-94
2021/07/25 04:12:00;;;;;;;14.90;12.70;;;18.50;89.30;;;;;;2076238;28;20034;-94
2021/07/25 04:13:01;;;;;;;15.70;13.30;;;18.50;88.70;;;;;;2068996;28;20428;-94
2021/07/25 04:14:01;;;;;;;14.70;12.88;;;18.50;88.80;;;;;;2068672;28;20027;-94
2021/07/25 04:15:03;;;;;;;15.18;12.68;;;18.50;88.80;;;;;;2063625;28;20030;-93
2021/07/25 04:16:04;;;;;;;14.93;12.65;;;18.50;88.80;;;;;;2068449;28;20516;-94
2021/07/25 04:17:05;;;;;;;14.95;12.18;;;18.50;88.70;;;;;;2076425;28;20021;-94
2021/07/25 04:18:06;;;;;;;14.40;11.93;;;18.50;88.70;;;;;;2057490;28;20563;-94
2021/07/25 04:19:06;;;;;;;15.02;12.30;;;18.50;88.70;;;;;;2049455;28;20090;-94
2021/07/25 04:20:08;;;;;;;15.65;12.85;;;18.50;88.80;;;;;;2050358;28;20060;-94
2021/07/25 04:21:08;;;;;;;15.48;12.60;;;18.50;88.80;;;;;;2058428;28;20038;-94
2021/07/25 04:22:09;;;;;;;13.27;11.88;;;18.50;88.80;;;;;;2058466;28;20552;-94
2021/07/25 04:23:09;;;;;;;13.15;11.60;;;18.50;88.80;;;;;;2066220;28;20049;-93
2021/07/25 04:24:10;;;;;;;15.60;12.60;;;18.50;88.80;;;;;;2066077;28;20030;-94
2021/07/25 04:25:11;;;;;;;14.75;12.40;;;18.50;88.90;;;;;;2077318;28;20125;-95
2021/07/25 04:26:12;;;;;;;14.30;12.25;;;18.50;88.90;;;;;;2074527;28;20472;-94
2021/07/25 04:27:13;;;;;;;14.90;12.60;;;18.50;88.90;;;;;;2066572;28;20121;-93
2021/07/25 04:28:15;;;;;;;13.48;11.82;;;18.50;88.90;;;;;;2075802;28;20073;-94
2021/07/25 04:29:16;;;;;;;14.27;12.02;;;18.50;88.90;;;;;;2082281;28;20026;-94
2021/07/25 04:30:17;;;;;;;14.05;12.07;;;18.50;88.90;;;;;;2091158;28;20051;-93
2021/07/25 04:31:18;;;;;;;14.70;11.93;;;18.50;88.80;;;;;;2090712;28;20060;-94
2021/07/25 04:32:19;;;;;;;14.88;12.82;;;18.50;88.80;;;;;;2087770;28;20025;-94
2021/07/25 04:33:21;;;;;;;13.13;11.43;;;18.50;88.80;;;;;;2074374;28;20030;-94
2021/07/25 04:34:24;;;;;;;14.05;12.25;;;18.50;88.70;;;;;;2073186;28;20042;-93
2021/07/25 04:35:25;;;;;;;13.98;11.73;;;18.50;88.70;;;;;;2082613;28;20388;-94
2021/07/25 04:36:26;;;;;;;13.50;11.77;;;18.60;89.30;;;;;;2083704;28;20073;-94
2021/07/25 04:37:29;;;;;;;13.80;11.52;;;18.60;88.60;;;;;;2090353;28;20043;-94
2021/07/25 04:38:30;;;;;;;13.45;12.02;;;18.60;88.60;;;;;;2082571;28;20022;-94
2021/07/25 04:39:31;;;;;;;15.13;12.20;;;18.60;88.60;;;;;;2081617;28;20025;-94
2021/07/25 04:40:32;;;;;;;15.95;12.48;;;18.60;88.50;;;;;;2082066;28;20029;-94
2021/07/25 04:41:50;;;;;;;13.20;11.38;;;18.60;88.50;;;;;;2082152;28;20052;-93
2021/07/25 04:42:56;;;;;;;12.95;11.07;;;18.60;88.40;;;;;;2076243;28;20037;-93
2021/07/25 04:44:07;;;;;;;12.43;10.85;;;18.60;88.30;;;;;;2083127;28;20017;-94
2021/07/25 04:45:08;;;;;;;13.52;10.90;;;18.70;88.30;;;;;;2090057;28;20032;-94
2021/07/25 04:46:21;;;;;;;14.02;11.32;;;18.70;88.20;;;;;;2090377;28;20021;-94
2021/07/25 04:47:48;;;;;;;13.70;11.18;;;18.80;88.20;;;;;;2083508;28;20025;-94
2021/07/25 04:49:13;;;;;;;13.45;10.60;;;18.80;88.20;;;;;;2081785;28;20053;-95
2021/07/25 04:50:16;;;;;;;13.05;10.90;;;18.80;88.10;;;;;;2077287;28;20041;-94
2021/07/25 04:51:19;;;;;;;13.15;10.27;;;18.80;87.90;;;;;;2066509;28;20068;-94
2021/07/25 04:52:22;;;;;;;12.70;10.88;;;18.90;87.90;;;;;;2074079;28;20032;-93
2021/07/25 04:53:25;;;;;;;12.60;10.68;;;18.90;87.80;;;;;;2082413;28;20025;-94
2021/07/25 04:54:30;;;;;;;12.65;10.82;;;18.90;87.80;;;;;;2082067;28;20557;-93
2021/07/25 04:55:33;;;;;;;14.50;11.00;;;18.90;87.80;;;;;;2067197;28;20037;-93
2021/07/25 04:56:58;;;;;;;13.48;11.25;;;18.90;87.70;;;;;;2086426;28;20036;-94
2021/07/25 04:58:08;;;;;;;13.13;10.73;;;19.00;87.70;;;;;;2090269;28;20076;-94
2021/07/25 04:59:17;;;;;;;13.40;10.70;;;19.00;87.60;;;;;;2073724;28;20025;-93
2021/07/25 05:00:18;;;;;;;13.27;10.77;;;19.00;87.60;;;;;;2071645;28;20026;-94
2021/07/25 05:01:28;;;;;;;12.13;10.10;;;19.00;87.50;;;;;;2073916;28;20508;-93
2021/07/25 05:02:31;;;;;;;12.93;10.68;;;19.00;87.50;;;;;;2062589;28;20104;-93
2021/07/25 05:03:33;;;;;;;13.50;10.88;;;19.10;87.50;;;;;;2066195;28;20428;-93
2021/07/25 05:04:34;;;;;;;12.57;10.32;;;19.10;87.50;;;;;;2058407;28;20023;-94
2021/07/25 05:05:35;;;;;;;11.95;10.30;;;19.10;87.50;;;;;;2057678;28;20046;-93
2021/07/25 05:06:38;;;;;;;13.32;10.70;;;19.10;87.40;;;;;;2068732;28;20622;-94
2021/07/25 05:07:40;;;;;;;13.55;11.10;;;19.10;87.40;;;;;;2073790;28;20022;-94
2021/07/25 05:08:42;;;;;;;13.85;10.63;;;19.10;87.40;;;;;;2073861;28;20044;-94
2021/07/25 05:09:43;;;;;;;12.20;9.98;;;19.10;87.40;;;;;;2073950;28;20030;-93
2021/07/25 05:10:44;;;;;;;12.48;10.40;;;19.10;87.30;;;;;;2065753;28;20030;-94
2021/07/25 05:11:51;;;;;;;12.38;10.70;;;19.10;87.30;;;;;;2050204;28;20118;-94
2021/07/25 05:12:59;;;;;;;11.82;10.15;;;19.20;87.30;;;;;;2074806;28;20025;-94
2021/07/25 05:14:02;;;;;;;13.13;10.18;;;19.20;87.20;;;;;;2090396;28;20013;-93
2021/07/25 05:15:06;;;;;;;12.13;10.27;;;19.20;87.20;;;;;;2081777;28;20522;-94
2021/07/25 05:16:09;;;;;;;12.48;10.00;;;19.20;87.30;;;;;;2082469;28;20028;-93